sensor_id;sensor_type;location;lat;lon;timestamp;P1;durP1;ratioP1;P2;durP2;ratioP2
8337;SDS011;4206;48.634;9.516;2023-02-18T05:32:35;3.37;;;0.50;;
8337;SDS011;4206;48.634;9.516;2023-02-18T05:35:02;1.13;;;0.40;;
8337;SDS011;4206;48.634;9.516;2023-02-18T05:37:29;3.70;;;1.70;;
8337;SDS011;4206;48.634;9.516;2023-02-18T05:39:56;0.90;;;0.60;;
8337;SDS011;4206;48.634;9.516;2023-02-18T05:42:23;0.50;;;0.30;;
8337;SDS011;4206;48.634;9.516;2023-02-18T05:44:50;0.50;;;0.30;;
8337;SDS011;4206;48.634;9.516;2023-02-18T05:47:17;0.50;;;0.43;;
8337;SDS011;4206;48.634;9.516;2023-02-18T05:49:43;0.50;;;0.30;;
8337;SDS011;4206;48.634;9.516;2023-02-18T05:52:15;0.63;;;0.40;;
8337;SDS011;4206;48.634;9.516;2023-02-18T05:54:42;0.50;;;0.40;;
8337;SDS011;4206;48.634;9.516;2023-02-18T05:57:10;0.77;;;0.40;;
8337;SDS011;4206;48.634;9.516;2023-02-18T05:59:39;1.40;;;0.40;;
8337;SDS011;4206;48.634;9.516;2023-02-18T06:02:06;0.40;;;0.30;;
8337;SDS011;4206;48.634;9.516;2023-02-18T06:04:33;0.70;;;0.43;;
8337;SDS011;4206;48.634;9.516;2023-02-18T06:06:59;0.80;;;0.30;;
8337;SDS011;4206;48.634;9.516;2023-02-18T06:09:26;0.70;;;0.40;;
8337;SDS011;4206;48.634;9.516;2023-02-18T06:11:53;0.73;;;0.70;;
8337;SDS011;4206;48.634;9.516;2023-02-18T06:14:20;0.50;;;0.37;;
8337;SDS011;4206;48.634;9.516;2023-02-18T06:16:46;3.80;;;0.40;;
8337;SDS011;4206;48.634;9.516;2023-02-18T06:19:13;0.50;;;0.30;;
8337;SDS011;4206;48.634;9.516;2023-02-18T06:21:40;0.80;;;0.40;;
8337;SDS011;4206;48.634;9.516;2023-02-18T06:24:07;0.40;;;0.30;;
8337;SDS011;4206;48.634;9.516;2023-02-18T06:26:33;0.80;;;0.50;;
8337;SDS011;4206;48.634;9.516;2023-02-18T06:29:00;2.03;;;0.40;;
8337;SDS011;4206;48.634;9.516;2023-02-18T06:31:27;1.07;;;0.47;;
8337;SDS011;4206;48.634;9.516;2023-02-18T06:33:54;0.70;;;0.30;;
8337;SDS011;4206;48.634;9.516;2023-02-18T06:36:21;0.40;;;0.30;;
8337;SDS011;4206;48.634;9.516;2023-02-18T06:38:48;0.57;;;0.40;;
8337;SDS011;4206;48.634;9.516;2023-02-18T06:41:15;0.67;;;0.67;;
8337;SDS011;4206;48.634;9.516;2023-02-18T06:43:42;0.40;;;0.40;;
8337;SDS011;4206;48.634;9.516;2023-02-18T06:46:09;0.90;;;0.30;;
8337;SDS011;4206;48.634;9.516;2023-02-18T06:48:37;0.50;;;0.30;;
8337;SDS011;4206;48.634;9.516;2023-02-18T06:51:04;3.63;;;0.40;;
8337;SDS011;4206;48.634;9.516;2023-02-18T06:53:31;0.50;;;0.50;;
8337;SDS011;4206;48.634;9.516;2023-02-18T06:55:58;2.80;;;0.67;;
8337;SDS011;4206;48.634;9.516;2023-02-18T06:58:25;0.50;;;0.50;;
8337;SDS011;4206;48.634;9.516;2023-02-18T07:00:52;1.37;;;0.67;;
8337;SDS011;4206;48.634;9.516;2023-02-18T07:03:18;0.60;;;0.50;;
8337;SDS011;4206;48.634;9.516;2023-02-18T07:05:45;0.97;;;0.40;;
8337;SDS011;4206;48.634;9.516;2023-02-18T07:08:12;1.07;;;0.90;;
8337;SDS011;4206;48.634;9.516;2023-02-18T07:10:39;3.80;;;0.87;;
8337;SDS011;4206;48.634;9.516;2023-02-18T07:13:06;2.63;;;1.30;;
8337;SDS011;4206;48.634;9.516;2023-02-18T07:15:33;1.30;;;0.77;;
8337;SDS011;4206;48.634;9.516;2023-02-18T07:18:00;0.80;;;0.70;;
8337;SDS011;4206;48.634;9.516;2023-02-18T07:20:27;1.03;;;0.53;;
8337;SDS011;4206;48.634;9.516;2023-02-18T07:22:54;3.43;;;0.83;;
8337;SDS011;4206;48.634;9.516;2023-02-18T07:25:21;1.03;;;0.90;;
8337;SDS011;4206;48.634;9.516;2023-02-18T07:27:48;0.60;;;0.60;;
8337;SDS011;4206;48.634;9.516;2023-02-18T07:30:16;2.87;;;0.70;;
8337;SDS011;4206;48.634;9.516;2023-02-18T07:32:44;1.03;;;0.80;;
8337;SDS011;4206;48.634;9.516;2023-02-18T07:35:14;1.17;;;0.63;;
8337;SDS011;4206;48.634;9.516;2023-02-18T07:37:47;0.60;;;0.47;;
8337;SDS011;4206;48.634;9.516;2023-02-18T07:40:16;0.50;;;0.50;;
8337;SDS011;4206;48.634;9.516;2023-02-18T07:42:44;0.73;;;0.40;;
8337;SDS011;4206;48.634;9.516;2023-02-18T07:45:12;1.70;;;0.90;;
8337;SDS011;4206;48.634;9.516;2023-02-18T07:47:39;1.07;;;0.50;;
8337;SDS011;4206;48.634;9.516;2023-02-18T07:50:07;0.80;;;0.70;;
8337;SDS011;4206;48.634;9.516;2023-02-18T07:52:35;2.23;;;0.60;;
8337;SDS011;4206;48.634;9.516;2023-02-18T07:55:01;0.60;;;0.53;;
8337;SDS011;4206;48.634;9.516;2023-02-18T07:57:28;0.90;;;0.70;;
8337;SDS011;4206;48.634;9.516;2023-02-18T07:59:55;0.70;;;0.50;;
8337;SDS011;4206;48.634;9.516;2023-02-18T08:02:22;1.17;;;0.60;;
8337;SDS011;4206;48.634;9.516;2023-02-18T08:04:50;0.90;;;0.70;;
8337;SDS011;4206;48.634;9.516;2023-02-18T08:07:17;0.90;;;0.70;;
8337;SDS011;4206;48.634;9.516;2023-02-18T08:09:45;2.03;;;0.80;;
8337;SDS011;4206;48.634;9.516;2023-02-18T08:12:14;1.00;;;0.70;;
8337;SDS011;4206;48.634;9.516;2023-02-18T08:14:41;2.70;;;0.50;;
8337;SDS011;4206;48.634;9.516;2023-02-18T08:17:07;1.87;;;0.70;;
8337;SDS011;4206;48.634;9.516;2023-02-18T08:19:34;1.23;;;0.67;;
8337;SDS011;4206;48.634;9.516;2023-02-18T08:22:01;1.40;;;0.60;;
8337;SDS011;4206;48.634;9.516;2023-02-18T08:24:28;1.53;;;0.70;;
8337;SDS011;4206;48.634;9.516;2023-02-18T08:26:55;0.93;;;0.53;;
8337;SDS011;4206;48.634;9.516;2023-02-18T08:29:27;10.43;;;1.57;;
8337;SDS011;4206;48.634;9.516;2023-02-18T08:31:54;1.77;;;0.80;;
8337;SDS011;4206;48.634;9.516;2023-02-18T08:34:23;2.23;;;0.67;;
8337;SDS011;4206;48.634;9.516;2023-02-18T08:36:51;1.77;;;0.40;;
8337;SDS011;4206;48.634;9.516;2023-02-18T08:39:17;2.83;;;0.80;;
8337;SDS011;4206;48.634;9.516;2023-02-18T08:41:44;0.80;;;0.57;;
8337;SDS011;4206;48.634;9.516;2023-02-18T08:44:11;1.13;;;0.47;;
8337;SDS011;4206;48.634;9.516;2023-02-18T08:46:38;1.97;;;0.70;;
8337;SDS011;4206;48.634;9.516;2023-02-18T08:49:05;1.80;;;0.50;;
8337;SDS011;4206;48.634;9.516;2023-02-18T08:51:32;0.70;;;0.60;;
8337;SDS011;4206;48.634;9.516;2023-02-18T08:53:59;0.90;;;0.50;;
8337;SDS011;4206;48.634;9.516;2023-02-18T08:56:26;2.40;;;0.80;;
8337;SDS011;4206;48.634;9.516;2023-02-18T08:58:53;1.00;;;0.60;;
8337;SDS011;4206;48.634;9.516;2023-02-18T09:01:19;0.50;;;0.30;;
8337;SDS011;4206;48.634;9.516;2023-02-18T09:03:47;1.83;;;0.60;;
8337;SDS011;4206;48.634;9.516;2023-02-18T09:06:14;1.57;;;0.47;;
8337;SDS011;4206;48.634;9.516;2023-02-18T09:08:41;2.50;;;0.80;;
8337;SDS011;4206;48.634;9.516;2023-02-18T09:11:09;1.53;;;0.93;;
8337;SDS011;4206;48.634;9.516;2023-02-18T09:13:36;0.70;;;0.60;;
8337;SDS011;4206;48.634;9.516;2023-02-18T09:16:07;1.83;;;0.63;;
8337;SDS011;4206;48.634;9.516;2023-02-18T09:18:38;1.93;;;0.73;;
8337;SDS011;4206;48.634;9.516;2023-02-18T09:21:06;18.57;;;2.23;;
8337;SDS011;4206;48.634;9.516;2023-02-18T09:23:35;0.80;;;0.70;;
8337;SDS011;4206;48.634;9.516;2023-02-18T09:26:05;2.23;;;0.60;;
8337;SDS011;4206;48.634;9.516;2023-02-18T09:28:34;0.80;;;0.67;;
8337;SDS011;4206;48.634;9.516;2023-02-18T09:31:08;1.43;;;0.40;;
8337;SDS011;4206;48.634;9.516;2023-02-18T09:33:41;1.63;;;0.50;;
8337;SDS011;4206;48.634;9.516;2023-02-18T09:36:11;0.93;;;0.40;;
8337;SDS011;4206;48.634;9.516;2023-02-18T09:38:38;0.50;;;0.37;;
8337;SDS011;4206;48.634;9.516;2023-02-18T09:41:07;2.10;;;0.70;;
8337;SDS011;4206;48.634;9.516;2023-02-18T09:43:40;2.40;;;0.67;;
8337;SDS011;4206;48.634;9.516;2023-02-18T09:46:16;1.17;;;0.53;;
8337;SDS011;4206;48.634;9.516;2023-02-18T09:48:47;1.33;;;0.43;;
8337;SDS011;4206;48.634;9.516;2023-02-18T09:51:14;2.40;;;0.80;;
8337;SDS011;4206;48.634;9.516;2023-02-18T09:53:47;1.03;;;0.50;;
8337;SDS011;4206;48.634;9.516;2023-02-18T09:56:25;1.47;;;0.57;;
8337;SDS011;4206;48.634;9.516;2023-02-18T09:58:56;0.60;;;0.47;;
8337;SDS011;4206;48.634;9.516;2023-02-18T10:04:05;2.90;;;0.47;;
8337;SDS011;4206;48.634;9.516;2023-02-18T10:06:40;0.77;;;0.50;;
8337;SDS011;4206;48.634;9.516;2023-02-18T10:09:15;0.80;;;0.57;;
8337;SDS011;4206;48.634;9.516;2023-02-18T10:12:18;0.73;;;0.37;;
8337;SDS011;4206;48.634;9.516;2023-02-18T10:14:50;1.20;;;0.67;;
8337;SDS011;4206;48.634;9.516;2023-02-18T10:17:17;1.60;;;0.70;;
8337;SDS011;4206;48.634;9.516;2023-02-18T10:19:46;0.70;;;0.40;;
8337;SDS011;4206;48.634;9.516;2023-02-18T10:22:14;1.37;;;0.50;;
8337;SDS011;4206;48.634;9.516;2023-02-18T10:24:49;0.87;;;0.50;;
8337;SDS011;4206;48.634;9.516;2023-02-18T10:27:23;1.00;;;0.40;;
8337;SDS011;4206;48.634;9.516;2023-02-18T10:29:50;2.60;;;0.50;;
8337;SDS011;4206;48.634;9.516;2023-02-18T10:32:31;1.80;;;0.80;;
8337;SDS011;4206;48.634;9.516;2023-02-18T10:35:05;2.27;;;0.67;;
8337;SDS011;4206;48.634;9.516;2023-02-18T10:45:48;1.57;;;0.63;;
8337;SDS011;4206;48.634;9.516;2023-02-18T10:50:54;0.90;;;0.57;;
8337;SDS011;4206;48.634;9.516;2023-02-18T10:53:32;0.70;;;0.53;;
8337;SDS011;4206;48.634;9.516;2023-02-18T10:56:02;0.73;;;0.40;;
8337;SDS011;4206;48.634;9.516;2023-02-18T10:58:46;0.70;;;0.70;;
8337;SDS011;4206;48.634;9.516;2023-02-18T11:01:20;1.27;;;0.70;;
8337;SDS011;4206;48.634;9.516;2023-02-18T11:03:48;0.80;;;0.60;;
8337;SDS011;4206;48.634;9.516;2023-02-18T11:08:51;2.70;;;0.77;;
8337;SDS011;4206;48.634;9.516;2023-02-18T11:11:22;1.57;;;0.80;;
8337;SDS011;4206;48.634;9.516;2023-02-18T11:13:55;1.57;;;0.60;;
8337;SDS011;4206;48.634;9.516;2023-02-18T11:16:36;0.70;;;0.60;;
8337;SDS011;4206;48.634;9.516;2023-02-18T11:19:08;2.20;;;0.80;;
8337;SDS011;4206;48.634;9.516;2023-02-18T11:24:41;1.30;;;0.50;;
8337;SDS011;4206;48.634;9.516;2023-02-18T11:27:17;0.57;;;0.40;;
8337;SDS011;4206;48.634;9.516;2023-02-18T11:29:52;0.93;;;0.60;;
8337;SDS011;4206;48.634;9.516;2023-02-18T11:32:28;0.90;;;0.60;;
8337;SDS011;4206;48.634;9.516;2023-02-18T11:34:56;3.37;;;0.60;;
8337;SDS011;4206;48.634;9.516;2023-02-18T11:37:23;1.47;;;0.87;;
8337;SDS011;4206;48.634;9.516;2023-02-18T11:39:50;1.20;;;0.60;;
8337;SDS011;4206;48.634;9.516;2023-02-18T11:42:20;3.33;;;0.70;;
8337;SDS011;4206;48.634;9.516;2023-02-18T11:44:58;2.40;;;0.63;;
8337;SDS011;4206;48.634;9.516;2023-02-18T11:47:27;0.60;;;0.43;;
8337;SDS011;4206;48.634;9.516;2023-02-18T11:57:33;0.93;;;0.67;;
8337;SDS011;4206;48.634;9.516;2023-02-18T12:00:04;1.33;;;0.50;;
8337;SDS011;4206;48.634;9.516;2023-02-18T12:02:55;1.27;;;0.70;;
8337;SDS011;4206;48.634;9.516;2023-02-18T12:05:27;1.13;;;0.80;;
8337;SDS011;4206;48.634;9.516;2023-02-18T12:07:58;1.37;;;0.87;;
8337;SDS011;4206;48.634;9.516;2023-02-18T12:10:32;1.10;;;0.50;;
8337;SDS011;4206;48.634;9.516;2023-02-18T12:16:09;2.03;;;0.63;;
8337;SDS011;4206;48.634;9.516;2023-02-18T12:27:25;1.73;;;0.73;;
8337;SDS011;4206;48.634;9.516;2023-02-18T12:32:35;1.23;;;0.80;;
8337;SDS011;4206;48.634;9.516;2023-02-18T12:38:14;1.20;;;0.70;;
8337;SDS011;4206;48.634;9.516;2023-02-18T12:54:02;1.27;;;0.67;;
8337;SDS011;4206;48.634;9.516;2023-02-18T12:59:37;0.90;;;0.57;;
8337;SDS011;4206;48.634;9.516;2023-02-18T13:16:47;1.30;;;0.60;;
8337;SDS011;4206;48.634;9.516;2023-02-18T13:21:53;1.13;;;0.60;;
8337;SDS011;4206;48.634;9.516;2023-02-18T13:24:37;2.03;;;0.63;;
8337;SDS011;4206;48.634;9.516;2023-02-18T13:32:47;1.70;;;0.60;;
8337;SDS011;4206;48.634;9.516;2023-02-18T13:40:29;1.97;;;0.83;;
8337;SDS011;4206;48.634;9.516;2023-02-18T13:43:18;1.13;;;0.50;;
8337;SDS011;4206;48.634;9.516;2023-02-18T13:46:14;0.90;;;0.60;;
8337;SDS011;4206;48.634;9.516;2023-02-18T13:56:43;1.60;;;0.67;;
8337;SDS011;4206;48.634;9.516;2023-02-18T14:04:47;2.10;;;1.70;;
8337;SDS011;4206;48.634;9.516;2023-02-18T14:07:16;0.80;;;0.80;;
8337;SDS011;4206;48.634;9.516;2023-02-18T14:12:42;1.93;;;0.80;;
8337;SDS011;4206;48.634;9.516;2023-02-18T14:20:31;1.10;;;0.80;;
8337;SDS011;4206;48.634;9.516;2023-02-18T14:22:58;0.60;;;0.50;;
8337;SDS011;4206;48.634;9.516;2023-02-18T14:25:35;3.23;;;0.67;;
8337;SDS011;4206;48.634;9.516;2023-02-18T14:28:34;2.20;;;0.60;;
8337;SDS011;4206;48.634;9.516;2023-02-18T14:31:05;1.97;;;0.60;;
8337;SDS011;4206;48.634;9.516;2023-02-18T14:39:24;1.37;;;0.57;;
8337;SDS011;4206;48.634;9.516;2023-02-18T14:51:05;2.13;;;0.80;;
8337;SDS011;4206;48.634;9.516;2023-02-18T14:53:33;1.33;;;0.60;;
8337;SDS011;4206;48.634;9.516;2023-02-18T14:56:06;1.33;;;0.83;;
8337;SDS011;4206;48.634;9.516;2023-02-18T14:58:36;1.27;;;0.67;;
8337;SDS011;4206;48.634;9.516;2023-02-18T15:01:16;0.87;;;0.70;;
8337;SDS011;4206;48.634;9.516;2023-02-18T15:03:43;1.17;;;1.03;;
8337;SDS011;4206;48.634;9.516;2023-02-18T15:08:58;2.20;;;0.60;;
8337;SDS011;4206;48.634;9.516;2023-02-18T15:11:41;1.47;;;0.63;;
8337;SDS011;4206;48.634;9.516;2023-02-18T15:14:17;1.00;;;0.70;;
8337;SDS011;4206;48.634;9.516;2023-02-18T15:16:52;2.53;;;1.10;;
8337;SDS011;4206;48.634;9.516;2023-02-18T15:19:20;2.03;;;1.10;;
8337;SDS011;4206;48.634;9.516;2023-02-18T15:21:50;0.70;;;0.53;;
8337;SDS011;4206;48.634;9.516;2023-02-18T15:24:33;0.77;;;0.53;;
8337;SDS011;4206;48.634;9.516;2023-02-18T15:27:04;0.60;;;0.60;;
8337;SDS011;4206;48.634;9.516;2023-02-18T15:29:37;2.83;;;0.70;;
8337;SDS011;4206;48.634;9.516;2023-02-18T15:32:17;0.87;;;0.80;;
8337;SDS011;4206;48.634;9.516;2023-02-18T15:34:53;0.70;;;0.43;;
8337;SDS011;4206;48.634;9.516;2023-02-18T15:37:23;0.60;;;0.57;;
8337;SDS011;4206;48.634;9.516;2023-02-18T15:39:50;0.73;;;0.67;;
8337;SDS011;4206;48.634;9.516;2023-02-18T15:42:25;0.60;;;0.50;;
8337;SDS011;4206;48.634;9.516;2023-02-18T15:44:56;2.50;;;0.77;;
8337;SDS011;4206;48.634;9.516;2023-02-18T15:47:24;1.00;;;0.90;;
8337;SDS011;4206;48.634;9.516;2023-02-18T15:49:51;1.83;;;0.70;;
8337;SDS011;4206;48.634;9.516;2023-02-18T15:52:24;0.77;;;0.63;;
8337;SDS011;4206;48.634;9.516;2023-02-18T15:54:54;0.60;;;0.60;;
8337;SDS011;4206;48.634;9.516;2023-02-18T15:57:27;2.50;;;0.90;;
8337;SDS011;4206;48.634;9.516;2023-02-18T16:00:02;2.27;;;0.80;;
8337;SDS011;4206;48.634;9.516;2023-02-18T16:02:54;1.13;;;0.93;;
8337;SDS011;4206;48.634;9.516;2023-02-18T16:05:28;1.53;;;1.03;;
8337;SDS011;4206;48.634;9.516;2023-02-18T16:07:59;1.30;;;1.00;;
8337;SDS011;4206;48.634;9.516;2023-02-18T16:13:01;1.30;;;0.93;;
8337;SDS011;4206;48.634;9.516;2023-02-18T16:15:36;0.80;;;0.67;;
8337;SDS011;4206;48.634;9.516;2023-02-18T16:18:05;3.70;;;1.00;;
8337;SDS011;4206;48.634;9.516;2023-02-18T16:20:51;1.43;;;0.73;;
8337;SDS011;4206;48.634;9.516;2023-02-18T16:23:33;0.80;;;0.50;;
8337;SDS011;4206;48.634;9.516;2023-02-18T16:26:40;1.50;;;0.90;;
8337;SDS011;4206;48.634;9.516;2023-02-18T16:29:12;1.20;;;0.83;;
8337;SDS011;4206;48.634;9.516;2023-02-18T16:31:41;1.03;;;0.87;;
8337;SDS011;4206;48.634;9.516;2023-02-18T16:34:08;1.60;;;0.90;;
8337;SDS011;4206;48.634;9.516;2023-02-18T16:36:35;4.50;;;1.30;;
8337;SDS011;4206;48.634;9.516;2023-02-18T16:39:02;1.43;;;1.00;;
8337;SDS011;4206;48.634;9.516;2023-02-18T16:41:29;3.30;;;0.83;;
8337;SDS011;4206;48.634;9.516;2023-02-18T16:43:56;1.50;;;0.80;;
8337;SDS011;4206;48.634;9.516;2023-02-18T16:46:22;0.77;;;0.60;;
8337;SDS011;4206;48.634;9.516;2023-02-18T16:48:53;1.73;;;0.90;;
8337;SDS011;4206;48.634;9.516;2023-02-18T16:51:23;1.00;;;0.60;;
8337;SDS011;4206;48.634;9.516;2023-02-18T16:53:55;1.40;;;0.80;;
8337;SDS011;4206;48.634;9.516;2023-02-18T16:56:23;1.90;;;0.97;;
8337;SDS011;4206;48.634;9.516;2023-02-18T16:58:51;1.07;;;1.00;;
8337;SDS011;4206;48.634;9.516;2023-02-18T17:04:09;1.30;;;1.17;;
8337;SDS011;4206;48.634;9.516;2023-02-18T17:06:37;1.77;;;0.90;;
8337;SDS011;4206;48.634;9.516;2023-02-18T17:09:08;2.40;;;1.47;;
8337;SDS011;4206;48.634;9.516;2023-02-18T17:11:40;1.40;;;1.10;;
8337;SDS011;4206;48.634;9.516;2023-02-18T17:14:08;1.37;;;0.90;;
8337;SDS011;4206;48.634;9.516;2023-02-18T17:16:40;1.23;;;0.90;;
8337;SDS011;4206;48.634;9.516;2023-02-18T17:19:07;1.20;;;1.10;;
8337;SDS011;4206;48.634;9.516;2023-02-18T17:21:34;2.67;;;0.97;;
8337;SDS011;4206;48.634;9.516;2023-02-18T17:24:00;2.50;;;0.73;;
8337;SDS011;4206;48.634;9.516;2023-02-18T17:26:28;1.10;;;1.00;;
8337;SDS011;4206;48.634;9.516;2023-02-18T17:28:56;1.63;;;0.87;;
8337;SDS011;4206;48.634;9.516;2023-02-18T17:31:25;1.33;;;0.90;;
8337;SDS011;4206;48.634;9.516;2023-02-18T17:33:55;1.10;;;0.73;;
8337;SDS011;4206;48.634;9.516;2023-02-18T17:36:25;1.77;;;1.00;;
8337;SDS011;4206;48.634;9.516;2023-02-18T17:38:52;1.17;;;0.70;;
8337;SDS011;4206;48.634;9.516;2023-02-18T17:41:19;1.93;;;0.70;;
8337;SDS011;4206;48.634;9.516;2023-02-18T17:43:46;1.40;;;1.20;;
8337;SDS011;4206;48.634;9.516;2023-02-18T17:46:13;1.17;;;1.07;;
8337;SDS011;4206;48.634;9.516;2023-02-18T17:48:42;1.73;;;1.27;;
8337;SDS011;4206;48.634;9.516;2023-02-18T17:51:14;1.60;;;1.10;;
8337;SDS011;4206;48.634;9.516;2023-02-18T17:53:52;1.40;;;0.90;;
8337;SDS011;4206;48.634;9.516;2023-02-18T17:56:20;1.10;;;0.90;;
8337;SDS011;4206;48.634;9.516;2023-02-18T17:58:46;1.90;;;0.90;;
8337;SDS011;4206;48.634;9.516;2023-02-18T18:01:14;0.77;;;0.77;;
8337;SDS011;4206;48.634;9.516;2023-02-18T18:03:41;1.73;;;0.90;;
8337;SDS011;4206;48.634;9.516;2023-02-18T18:06:18;1.50;;;1.03;;
8337;SDS011;4206;48.634;9.516;2023-02-18T18:08:46;1.03;;;0.70;;
8337;SDS011;4206;48.634;9.516;2023-02-18T18:11:15;1.70;;;0.90;;
8337;SDS011;4206;48.634;9.516;2023-02-18T18:13:45;1.33;;;1.10;;
8337;SDS011;4206;48.634;9.516;2023-02-18T18:16:13;1.33;;;1.23;;
8337;SDS011;4206;48.634;9.516;2023-02-18T18:18:41;2.30;;;1.27;;
8337;SDS011;4206;48.634;9.516;2023-02-18T18:21:13;2.00;;;1.10;;
8337;SDS011;4206;48.634;9.516;2023-02-18T18:23:48;2.43;;;1.30;;
8337;SDS011;4206;48.634;9.516;2023-02-18T18:26:16;1.30;;;0.90;;
8337;SDS011;4206;48.634;9.516;2023-02-18T18:28:42;1.43;;;1.30;;
8337;SDS011;4206;48.634;9.516;2023-02-18T18:31:13;1.30;;;1.20;;
8337;SDS011;4206;48.634;9.516;2023-02-18T18:33:44;1.63;;;0.90;;
8337;SDS011;4206;48.634;9.516;2023-02-18T18:36:16;1.20;;;1.10;;
8337;SDS011;4206;48.634;9.516;2023-02-18T18:38:44;1.77;;;1.67;;
8337;SDS011;4206;48.634;9.516;2023-02-18T18:41:13;3.73;;;1.50;;
8337;SDS011;4206;48.634;9.516;2023-02-18T18:43:44;3.80;;;1.73;;
8337;SDS011;4206;48.634;9.516;2023-02-18T18:46:11;1.90;;;1.10;;
8337;SDS011;4206;48.634;9.516;2023-02-18T18:48:38;1.20;;;1.00;;
8337;SDS011;4206;48.634;9.516;2023-02-18T18:51:05;1.13;;;0.87;;
8337;SDS011;4206;48.634;9.516;2023-02-18T18:53:32;2.80;;;1.20;;
8337;SDS011;4206;48.634;9.516;2023-02-18T18:56:05;1.80;;;1.40;;
8337;SDS011;4206;48.634;9.516;2023-02-18T18:58:32;1.27;;;0.73;;
8337;SDS011;4206;48.634;9.516;2023-02-18T19:01:00;2.00;;;0.83;;
8337;SDS011;4206;48.634;9.516;2023-02-18T19:03:28;1.20;;;1.10;;
8337;SDS011;4206;48.634;9.516;2023-02-18T19:05:55;1.00;;;0.80;;
8337;SDS011;4206;48.634;9.516;2023-02-18T19:08:23;1.10;;;0.93;;
8337;SDS011;4206;48.634;9.516;2023-02-18T19:10:51;1.07;;;0.97;;
8337;SDS011;4206;48.634;9.516;2023-02-18T19:13:22;1.40;;;1.00;;
8337;SDS011;4206;48.634;9.516;2023-02-18T19:15:50;1.17;;;0.90;;
8337;SDS011;4206;48.634;9.516;2023-02-18T19:18:25;3.10;;;1.43;;
8337;SDS011;4206;48.634;9.516;2023-02-18T19:20:53;1.53;;;1.30;;
8337;SDS011;4206;48.634;9.516;2023-02-18T19:23:19;3.37;;;1.10;;
8337;SDS011;4206;48.634;9.516;2023-02-18T19:25:46;2.60;;;1.60;;
8337;SDS011;4206;48.634;9.516;2023-02-18T19:28:13;1.73;;;1.20;;
8337;SDS011;4206;48.634;9.516;2023-02-18T19:30:40;1.77;;;1.50;;
8337;SDS011;4206;48.634;9.516;2023-02-18T19:33:09;2.70;;;1.50;;
8337;SDS011;4206;48.634;9.516;2023-02-18T19:35:38;3.90;;;1.87;;
8337;SDS011;4206;48.634;9.516;2023-02-18T19:38:07;2.00;;;1.33;;
8337;SDS011;4206;48.634;9.516;2023-02-18T19:40:37;3.43;;;1.83;;
8337;SDS011;4206;48.634;9.516;2023-02-18T19:43:04;6.70;;;2.83;;
8337;SDS011;4206;48.634;9.516;2023-02-18T19:45:32;4.40;;;1.90;;
8337;SDS011;4206;48.634;9.516;2023-02-18T19:48:00;3.40;;;1.70;;
8337;SDS011;4206;48.634;9.516;2023-02-18T19:50:28;8.10;;;2.63;;
8337;SDS011;4206;48.634;9.516;2023-02-18T19:52:58;7.53;;;2.87;;
8337;SDS011;4206;48.634;9.516;2023-02-18T19:55:25;6.80;;;2.97;;
8337;SDS011;4206;48.634;9.516;2023-02-18T19:57:52;4.50;;;2.00;;
8337;SDS011;4206;48.634;9.516;2023-02-18T20:00:20;4.20;;;1.40;;
8337;SDS011;4206;48.634;9.516;2023-02-18T20:02:48;3.03;;;1.60;;
8337;SDS011;4206;48.634;9.516;2023-02-18T20:05:15;2.37;;;1.80;;
8337;SDS011;4206;48.634;9.516;2023-02-18T20:07:42;3.67;;;2.33;;
8337;SDS011;4206;48.634;9.516;2023-02-18T20:10:13;2.10;;;1.50;;
8337;SDS011;4206;48.634;9.516;2023-02-18T20:12:41;2.03;;;1.63;;
8337;SDS011;4206;48.634;9.516;2023-02-18T20:15:09;2.60;;;1.50;;
8337;SDS011;4206;48.634;9.516;2023-02-18T20:17:36;3.97;;;2.10;;
8337;SDS011;4206;48.634;9.516;2023-02-18T20:20:04;2.47;;;1.67;;
8337;SDS011;4206;48.634;9.516;2023-02-18T20:22:32;3.17;;;2.20;;
8337;SDS011;4206;48.634;9.516;2023-02-18T20:24:59;4.70;;;2.33;;
8337;SDS011;4206;48.634;9.516;2023-02-18T20:27:26;2.10;;;1.60;;
8337;SDS011;4206;48.634;9.516;2023-02-18T20:29:53;2.70;;;2.20;;
8337;SDS011;4206;48.634;9.516;2023-02-18T20:32:19;2.70;;;1.90;;
8337;SDS011;4206;48.634;9.516;2023-02-18T20:34:46;1.70;;;1.60;;
8337;SDS011;4206;48.634;9.516;2023-02-18T20:37:13;3.00;;;2.20;;
8337;SDS011;4206;48.634;9.516;2023-02-18T20:39:40;3.63;;;1.57;;
8337;SDS011;4206;48.634;9.516;2023-02-18T20:42:06;1.73;;;1.47;;
8337;SDS011;4206;48.634;9.516;2023-02-18T20:44:42;2.03;;;1.63;;
8337;SDS011;4206;48.634;9.516;2023-02-18T20:47:10;3.10;;;1.70;;
8337;SDS011;4206;48.634;9.516;2023-02-18T20:49:40;1.97;;;1.77;;
8337;SDS011;4206;48.634;9.516;2023-02-18T20:52:07;2.00;;;1.63;;
8337;SDS011;4206;48.634;9.516;2023-02-18T20:54:35;2.20;;;1.57;;
8337;SDS011;4206;48.634;9.516;2023-02-18T20:57:02;3.20;;;1.80;;
8337;SDS011;4206;48.634;9.516;2023-02-18T20:59:29;1.87;;;1.40;;
8337;SDS011;4206;48.634;9.516;2023-02-18T21:01:58;7.70;;;1.80;;
8337;SDS011;4206;48.634;9.516;2023-02-18T21:04:25;1.40;;;1.30;;
8337;SDS011;4206;48.634;9.516;2023-02-18T21:06:52;1.57;;;1.47;;
8337;SDS011;4206;48.634;9.516;2023-02-18T21:09:19;6.43;;;1.30;;
8337;SDS011;4206;48.634;9.516;2023-02-18T21:11:46;0.97;;;0.97;;
8337;SDS011;4206;48.634;9.516;2023-02-18T21:14:14;1.73;;;1.20;;
8337;SDS011;4206;48.634;9.516;2023-02-18T21:16:40;3.97;;;1.30;;
8337;SDS011;4206;48.634;9.516;2023-02-18T21:19:10;1.90;;;1.20;;
8337;SDS011;4206;48.634;9.516;2023-02-18T21:21:39;1.93;;;1.23;;
8337;SDS011;4206;48.634;9.516;2023-02-18T21:24:06;3.53;;;1.40;;
8337;SDS011;4206;48.634;9.516;2023-02-18T21:26:34;1.47;;;1.20;;
8337;SDS011;4206;48.634;9.516;2023-02-18T21:29:02;3.60;;;1.10;;
8337;SDS011;4206;48.634;9.516;2023-02-18T21:31:39;1.20;;;1.10;;
8337;SDS011;4206;48.634;9.516;2023-02-18T21:34:09;1.43;;;1.33;;
8337;SDS011;4206;48.634;9.516;2023-02-18T21:36:39;5.13;;;1.20;;
8337;SDS011;4206;48.634;9.516;2023-02-18T21:39:07;2.77;;;1.23;;
8337;SDS011;4206;48.634;9.516;2023-02-18T21:41:35;1.20;;;1.10;;
8337;SDS011;4206;48.634;9.516;2023-02-18T21:44:05;2.67;;;1.57;;
8337;SDS011;4206;48.634;9.516;2023-02-18T21:46:33;2.13;;;1.50;;
8337;SDS011;4206;48.634;9.516;2023-02-18T21:49:00;3.50;;;1.50;;
8337;SDS011;4206;48.634;9.516;2023-02-18T21:51:27;1.90;;;1.13;;
8337;SDS011;4206;48.634;9.516;2023-02-18T21:54:18;1.20;;;1.00;;
8337;SDS011;4206;48.634;9.516;2023-02-18T21:56:46;2.67;;;1.20;;
8337;SDS011;4206;48.634;9.516;2023-02-18T21:59:14;1.60;;;1.40;;
8337;SDS011;4206;48.634;9.516;2023-02-18T22:01:41;2.70;;;1.50;;
8337;SDS011;4206;48.634;9.516;2023-02-18T22:04:08;2.10;;;1.20;;
8337;SDS011;4206;48.634;9.516;2023-02-18T22:06:35;3.30;;;1.50;;
8337;SDS011;4206;48.634;9.516;2023-02-18T22:09:02;4.33;;;1.27;;
8337;SDS011;4206;48.634;9.516;2023-02-18T22:11:30;1.50;;;1.40;;
8337;SDS011;4206;48.634;9.516;2023-02-18T22:13:58;1.73;;;1.40;;
8337;SDS011;4206;48.634;9.516;2023-02-18T22:16:25;3.40;;;2.60;;
8337;SDS011;4206;48.634;9.516;2023-02-18T22:18:54;1.40;;;1.13;;
8337;SDS011;4206;48.634;9.516;2023-02-18T22:21:21;3.07;;;1.07;;
8337;SDS011;4206;48.634;9.516;2023-02-18T22:23:49;5.00;;;1.43;;
8337;SDS011;4206;48.634;9.516;2023-02-18T22:26:16;2.17;;;1.17;;
8337;SDS011;4206;48.634;9.516;2023-02-18T22:28:43;5.20;;;1.50;;
8337;SDS011;4206;48.634;9.516;2023-02-18T22:31:12;1.87;;;1.43;;
8337;SDS011;4206;48.634;9.516;2023-02-18T22:33:39;2.50;;;1.53;;
8337;SDS011;4206;48.634;9.516;2023-02-18T22:36:08;1.53;;;1.20;;
8337;SDS011;4206;48.634;9.516;2023-02-18T22:38:36;1.50;;;1.00;;
8337;SDS011;4206;48.634;9.516;2023-02-18T22:41:06;1.87;;;1.63;;
8337;SDS011;4206;48.634;9.516;2023-02-18T22:43:36;1.27;;;1.00;;
8337;SDS011;4206;48.634;9.516;2023-02-18T22:46:07;2.27;;;1.30;;
8337;SDS011;4206;48.634;9.516;2023-02-18T22:48:38;1.67;;;1.57;;
8337;SDS011;4206;48.634;9.516;2023-02-18T22:51:18;2.70;;;1.53;;
8337;SDS011;4206;48.634;9.516;2023-02-18T22:53:53;1.90;;;1.47;;
8337;SDS011;4206;48.634;9.516;2023-02-18T22:56:22;3.90;;;1.57;;
8337;SDS011;4206;48.634;9.516;2023-02-18T22:58:51;2.60;;;1.40;;
8337;SDS011;4206;48.634;9.516;2023-02-18T23:03:57;2.10;;;1.60;;
8337;SDS011;4206;48.634;9.516;2023-02-18T23:06:30;1.77;;;1.47;;
8337;SDS011;4206;48.634;9.516;2023-02-18T23:08:57;2.07;;;1.33;;
8337;SDS011;4206;48.634;9.516;2023-02-18T23:11:24;2.53;;;1.20;;
8337;SDS011;4206;48.634;9.516;2023-02-18T23:13:52;2.37;;;1.17;;
8337;SDS011;4206;48.634;9.516;2023-02-18T23:16:39;1.37;;;1.10;;
8337;SDS011;4206;48.634;9.516;2023-02-18T23:19:25;2.70;;;1.03;;